sensor_id;sensor_type;location;lat;lon;timestamp;pressure;altitude;pressure_sealevel;temperature;humidity
47815;BME280;33579;50.058;18.130;2024-03-08T00:00:50;99861.44;;;1.65;100.00
47815;BME280;33579;50.058;18.130;2024-03-08T00:01:52;99858.06;;;1.63;100.00
47815;BME280;33579;50.058;18.130;2024-03-08T00:02:54;99859.94;;;1.59;100.00
47815;BME280;33579;50.058;18.130;2024-03-08T00:03:55;99860.16;;;1.53;100.00
47815;BME280;33579;50.058;18.130;2024-03-08T00:04:57;99861.16;;;1.50;100.00
47815;BME280;33579;50.058;18.130;2024-03-08T00:05:59;99854.16;;;1.52;100.00
47815;BME280;33579;50.058;18.130;2024-03-08T00:07:01;99853.19;;;1.55;100.00
47815;BME280;33579;50.058;18.130;2024-03-08T00:08:03;99856.66;;;1.54;100.00
47815;BME280;33579;50.058;18.130;2024-03-08T00:09:04;99856.00;;;1.49;100.00
47815;BME280;33579;50.058;18.130;2024-03-08T00:10:08;99843.16;;;1.46;100.00
47815;BME280;33579;50.058;18.130;2024-03-08T00:11:10;99850.94;;;1.46;100.00
47815;BME280;33579;50.058;18.130;2024-03-08T00:12:11;99856.31;;;1.41;100.00
47815;BME280;33579;50.058;18.130;2024-03-08T00:13:13;99858.03;;;1.40;100.00
47815;BME280;33579;50.058;18.130;2024-03-08T00:14:16;99857.03;;;1.45;100.00
47815;BME280;33579;50.058;18.130;2024-03-08T00:15:18;99861.44;;;1.43;100.00
47815;BME280;33579;50.058;18.130;2024-03-08T00:16:20;99858.94;;;1.39;100.00
47815;BME280;33579;50.058;18.130;2024-03-08T00:17:22;99858.91;;;1.41;100.00
47815;BME280;33579;50.058;18.130;2024-03-08T00:18:24;99853.47;;;1.47;100.00
47815;BME280;33579;50.058;18.130;2024-03-08T00:19:26;99856.06;;;1.47;100.00
47815;BME280;33579;50.058;18.130;2024-03-08T00:20:27;99857.81;;;1.47;100.00
47815;BME280;33579;50.058;18.130;2024-03-08T00:21:29;99847.63;;;1.42;100.00
47815;BME280;33579;50.058;18.130;2024-03-08T00:22:31;99847.56;;;1.44;100.00
47815;BME280;33579;50.058;18.130;2024-03-08T00:23:33;99844.16;;;1.42;100.00
47815;BME280;33579;50.058;18.130;2024-03-08T00:24:34;99840.03;;;1.37;100.00
47815;BME280;33579;50.058;18.130;2024-03-08T00:25:36;99839.19;;;1.37;100.00
47815;BME280;33579;50.058;18.130;2024-03-08T00:26:38;99837.56;;;1.34;100.00
47815;BME280;33579;50.058;18.130;2024-03-08T00:27:40;99831.63;;;1.31;100.00
47815;BME280;33579;50.058;18.130;2024-03-08T00:28:42;99836.88;;;1.29;100.00
47815;BME280;33579;50.058;18.130;2024-03-08T00:29:44;99842.88;;;1.31;100.00
47815;BME280;33579;50.058;18.130;2024-03-08T00:30:46;99843.78;;;1.30;100.00
47815;BME280;33579;50.058;18.130;2024-03-08T00:31:47;99838.63;;;1.29;100.00
47815;BME280;33579;50.058;18.130;2024-03-08T00:32:49;99840.28;;;1.31;100.00
47815;BME280;33579;50.058;18.130;2024-03-08T00:33:51;99841.34;;;1.25;100.00
47815;BME280;33579;50.058;18.130;2024-03-08T00:34:53;99839.75;;;1.21;100.00
47815;BME280;33579;50.058;18.130;2024-03-08T00:35:55;99841.56;;;1.19;100.00
47815;BME280;33579;50.058;18.130;2024-03-08T00:36:57;99842.50;;;1.17;100.00
47815;BME280;33579;50.058;18.130;2024-03-08T00:37:59;99838.25;;;1.16;100.00
47815;BME280;33579;50.058;18.130;2024-03-08T00:39:01;99843.31;;;1.19;100.00
47815;BME280;33579;50.058;18.130;2024-03-08T00:40:03;99834.75;;;1.17;100.00
47815;BME280;33579;50.058;18.130;2024-03-08T00:41:05;99836.47;;;1.18;100.00
47815;BME280;33579;50.058;18.130;2024-03-08T00:42:06;99832.28;;;1.14;100.00
47815;BME280;33579;50.058;18.130;2024-03-08T00:43:08;99838.25;;;1.16;100.00
47815;BME280;33579;50.058;18.130;2024-03-08T00:44:10;99830.47;;;1.16;100.00
47815;BME280;33579;50.058;18.130;2024-03-08T00:45:11;99833.00;;;1.17;100.00
47815;BME280;33579;50.058;18.130;2024-03-08T00:46:13;99828.56;;;1.21;100.00
47815;BME280;33579;50.058;18.130;2024-03-08T00:47:15;99824.38;;;1.17;100.00
47815;BME280;33579;50.058;18.130;2024-03-08T00:48:17;99830.47;;;1.16;100.00
47815;BME280;33579;50.058;18.130;2024-03-08T00:49:19;99827.94;;;1.14;100.00
47815;BME280;33579;50.058;18.130;2024-03-08T00:50:21;99825.41;;;1.12;100.00
47815;BME280;33579;50.058;18.130;2024-03-08T00:51:22;99825.44;;;1.11;100.00
47815;BME280;33579;50.058;18.130;2024-03-08T00:52:24;99827.09;;;1.14;100.00
47815;BME280;33579;50.058;18.130;2024-03-08T00:53:26;99823.84;;;1.08;100.00
47815;BME280;33579;50.058;18.130;2024-03-08T00:54:28;99827.22;;;1.10;100.00
47815;BME280;33579;50.058;18.130;2024-03-08T00:55:29;99826.97;;;1.17;100.00
47815;BME280;33579;50.058;18.130;2024-03-08T00:56:31;99820.25;;;1.11;100.00
47815;BME280;33579;50.058;18.130;2024-03-08T00:57:33;99824.66;;;1.09;100.00
47815;BME280;33579;50.058;18.130;2024-03-08T00:58:36;99820.50;;;1.05;100.00
47815;BME280;33579;50.058;18.130;2024-03-08T00:59:38;99821.28;;;1.07;100.00
47815;BME280;33579;50.058;18.130;2024-03-08T01:00:40;99824.56;;;1.12;100.00
47815;BME280;33579;50.058;18.130;2024-03-08T01:01:41;99819.25;;;1.15;100.00
47815;BME280;33579;50.058;18.130;2024-03-08T01:02:43;99818.31;;;1.18;100.00
47815;BME280;33579;50.058;18.130;2024-03-08T01:03:45;99827.78;;;1.19;100.00
47815;BME280;33579;50.058;18.130;2024-03-08T01:04:47;99819.16;;;1.18;100.00
47815;BME280;33579;50.058;18.130;2024-03-08T01:05:48;99820.81;;;1.19;100.00
47815;BME280;33579;50.058;18.130;2024-03-08T01:06:50;99818.13;;;1.22;100.00
47815;BME280;33579;50.058;18.130;2024-03-08T01:07:52;99808.81;;;1.17;100.00
47815;BME280;33579;50.058;18.130;2024-03-08T01:08:54;99815.66;;;1.19;100.00
47815;BME280;33579;50.058;18.130;2024-03-08T01:09:55;99812.03;;;1.23;100.00
47815;BME280;33579;50.058;18.130;2024-03-08T01:10:57;99815.78;;;1.16;100.00
47815;BME280;33579;50.058;18.130;2024-03-08T01:11:59;99808.91;;;1.15;100.00
47815;BME280;33579;50.058;18.130;2024-03-08T01:13:01;99815.00;;;1.14;100.00
47815;BME280;33579;50.058;18.130;2024-03-08T01:14:03;99809.06;;;1.10;100.00
47815;BME280;33579;50.058;18.130;2024-03-08T01:15:05;99809.91;;;1.11;100.00
47815;BME280;33579;50.058;18.130;2024-03-08T01:16:07;99808.22;;;1.10;100.00
47815;BME280;33579;50.058;18.130;2024-03-08T01:17:08;99810.03;;;1.08;100.00
47815;BME280;33579;50.058;18.130;2024-03-08T01:18:10;99802.25;;;1.08;100.00
47815;BME280;33579;50.058;18.130;2024-03-08T01:19:12;99808.22;;;1.10;100.00
47815;BME280;33579;50.058;18.130;2024-03-08T01:20:14;99796.28;;;1.06;100.00
47815;BME280;33579;50.058;18.130;2024-03-08T01:21:15;99795.34;;;1.08;100.00
47815;BME280;33579;50.058;18.130;2024-03-08T01:22:17;99803.22;;;1.05;100.00
47815;BME280;33579;50.058;18.130;2024-03-08T01:23:19;99805.81;;;1.05;100.00
47815;BME280;33579;50.058;18.130;2024-03-08T01:24:20;99801.59;;;1.03;100.00
47815;BME280;33579;50.058;18.130;2024-03-08T01:25:22;99807.69;;;1.02;100.00
47815;BME280;33579;50.058;18.130;2024-03-08T01:26:24;99801.59;;;1.03;100.00
47815;BME280;33579;50.058;18.130;2024-03-08T01:27:25;99803.28;;;1.04;100.00
47815;BME280;33579;50.058;18.130;2024-03-08T01:28:27;99805.75;;;1.07;100.00
47815;BME280;33579;50.058;18.130;2024-03-08T01:29:29;99811.00;;;1.05;100.00
47815;BME280;33579;50.058;18.130;2024-03-08T01:30:31;99802.59;;;0.98;100.00
47815;BME280;33579;50.058;18.130;2024-03-08T01:31:33;99796.78;;;0.92;100.00
47815;BME280;33579;50.058;18.130;2024-03-08T01:32:35;99796.78;;;0.92;100.00
47815;BME280;33579;50.058;18.130;2024-03-08T01:33:37;99793.38;;;0.91;100.00
47815;BME280;33579;50.058;18.130;2024-03-08T01:34:38;99800.25;;;0.92;100.00
47815;BME280;33579;50.058;18.130;2024-03-08T01:35:40;99789.84;;;0.94;100.00
47815;BME280;33579;50.058;18.130;2024-03-08T01:36:42;99791.53;;;0.95;100.00
47815;BME280;33579;50.058;18.130;2024-03-08T01:37:43;99789.84;;;0.94;100.00
47815;BME280;33579;50.058;18.130;2024-03-08T01:38:45;99791.69;;;0.90;100.00
47815;BME280;33579;50.058;18.130;2024-03-08T01:39:47;99790.09;;;0.86;100.00
47815;BME280;33579;50.058;18.130;2024-03-08T01:40:49;99787.63;;;0.83;100.00
47815;BME280;33579;50.058;18.130;2024-03-08T01:41:51;99792.81;;;0.83;100.00
47815;BME280;33579;50.058;18.130;2024-03-08T01:42:53;99793.66;;;0.83;100.00
47815;BME280;33579;50.058;18.130;2024-03-08T01:43:54;99785.28;;;0.77;100.00
47815;BME280;33579;50.058;18.130;2024-03-08T01:44:56;99793.81;;;0.79;100.00
47815;BME280;33579;50.058;18.130;2024-03-08T01:45:58;99779.22;;;0.76;100.00
47815;BME280;33579;50.058;18.130;2024-03-08T01:47:00;99790.34;;;0.80;100.00
47815;BME280;33579;50.058;18.130;2024-03-08T01:48:02;99791.34;;;0.76;100.00
47815;BME280;33579;50.058;18.130;2024-03-08T01:49:04;99786.22;;;0.74;100.00
47815;BME280;33579;50.058;18.130;2024-03-08T01:50:07;99784.59;;;0.72;100.00
47815;BME280;33579;50.058;18.130;2024-03-08T01:51:09;99787.97;;;0.74;100.00
47815;BME280;33579;50.058;18.130;2024-03-08T01:52:11;99776.03;;;0.69;100.00
47815;BME280;33579;50.058;18.130;2024-03-08T01:53:13;99782.91;;;0.70;100.00
47815;BME280;33579;50.058;18.130;2024-03-08T01:54:16;99777.78;;;0.69;100.00
47815;BME280;33579;50.058;18.130;2024-03-08T01:55:20;99773.44;;;0.69;100.00
47815;BME280;33579;50.058;18.130;2024-03-08T01:56:21;99779.66;;;0.65;100.00
47815;BME280;33579;50.058;18.130;2024-03-08T01:57:23;99773.44;;;0.69;100.00
47815;BME280;33579;50.058;18.130;2024-03-08T01:58:27;99776.09;;;0.68;100.00
47815;BME280;33579;50.058;18.130;2024-03-08T01:59:30;99770.94;;;0.68;100.00
47815;BME280;33579;50.058;18.130;2024-03-08T02:00:33;99771.00;;;0.65;100.00
47815;BME280;33579;50.058;18.130;2024-03-08T02:01:35;99771.00;;;0.65;100.00
47815;BME280;33579;50.058;18.130;2024-03-08T02:02:37;99778.75;;;0.66;100.00
47815;BME280;33579;50.058;18.130;2024-03-08T02:03:39;99775.13;;;0.70;100.00
47815;BME280;33579;50.058;18.130;2024-03-08T02:04:40;99776.94;;;0.68;100.00
47815;BME280;33579;50.058;18.130;2024-03-08T02:05:43;99782.00;;;0.72;100.00
47815;BME280;33579;50.058;18.130;2024-03-08T02:06:44;99774.22;;;0.72;100.00
47815;BME280;33579;50.058;18.130;2024-03-08T02:07:47;99776.88;;;0.70;100.00
47815;BME280;33579;50.058;18.130;2024-03-08T02:08:48;99770.97;;;0.66;100.00
47815;BME280;33579;50.058;18.130;2024-03-08T02:09:50;99776.03;;;0.69;100.00
47815;BME280;33579;50.058;18.130;2024-03-08T02:10:52;99772.41;;;0.74;100.00
47815;BME280;33579;50.058;18.130;2024-03-08T02:11:54;99771.63;;;0.72;100.00
47815;BME280;33579;50.058;18.130;2024-03-08T02:12:58;99765.63;;;0.71;100.00
47815;BME280;33579;50.058;18.130;2024-03-08T02:14:00;99766.41;;;0.73;100.00
47815;BME280;33579;50.058;18.130;2024-03-08T02:15:02;99769.03;;;0.72;100.00
47815;BME280;33579;50.058;18.130;2024-03-08T02:16:04;99771.59;;;0.73;100.00
47815;BME280;33579;50.058;18.130;2024-03-08T02:17:06;99761.22;;;0.73;100.00
47815;BME280;33579;50.058;18.130;2024-03-08T02:18:08;99769.03;;;0.72;100.00
47815;BME280;33579;50.058;18.130;2024-03-08T02:19:10;99769.00;;;0.73;100.00
47815;BME280;33579;50.058;18.130;2024-03-08T02:20:12;99770.72;;;0.73;100.00
47815;BME280;33579;50.058;18.130;2024-03-08T02:21:17;99772.50;;;0.72;100.00
47815;BME280;33579;50.058;18.130;2024-03-08T02:22:19;99768.03;;;0.76;100.00
47815;BME280;33579;50.058;18.130;2024-03-08T02:23:21;99778.28;;;0.79;100.00
47815;BME280;33579;50.058;18.130;2024-03-08T02:24:23;99773.16;;;0.77;100.00
47815;BME280;33579;50.058;18.130;2024-03-08T02:25:25;99775.75;;;0.77;100.00
47815;BME280;33579;50.058;18.130;2024-03-08T02:26:27;99768.81;;;0.78;100.00
47815;BME280;33579;50.058;18.130;2024-03-08T02:27:29;99770.13;;;0.66;100.00
47815;BME280;33579;50.058;18.130;2024-03-08T02:28:31;99762.59;;;0.60;100.00
47815;BME280;33579;50.058;18.130;2024-03-08T02:29:33;99771.13;;;0.62;100.00
47815;BME280;33579;50.058;18.130;2024-03-08T02:30:35;99763.25;;;0.65;100.00
47815;BME280;33579;50.058;18.130;2024-03-08T02:31:37;99768.44;;;0.65;100.00
47815;BME280;33579;50.058;18.130;2024-03-08T02:32:39;99768.25;;;0.69;100.00
47815;BME280;33579;50.058;18.130;2024-03-08T02:33:40;99769.91;;;0.72;100.00
47815;BME280;33579;50.058;18.130;2024-03-08T02:34:43;99770.72;;;0.73;100.00
47815;BME280;33579;50.058;18.130;2024-03-08T02:35:45;99765.66;;;0.69;100.00
47815;BME280;33579;50.058;18.130;2024-03-08T02:36:48;99773.44;;;0.69;100.00
47815;BME280;33579;50.058;18.130;2024-03-08T02:37:49;99768.22;;;0.71;100.00
47815;BME280;33579;50.058;18.130;2024-03-08T02:38:51;99762.19;;;0.70;100.00
47815;BME280;33579;50.058;18.130;2024-03-08T02:39:53;99765.75;;;0.68;100.00
47815;BME280;33579;50.058;18.130;2024-03-08T02:40:55;99767.53;;;0.66;100.00
47815;BME280;33579;50.058;18.130;2024-03-08T02:41:56;99764.88;;;0.67;100.00
47815;BME280;33579;50.058;18.130;2024-03-08T02:42:58;99762.31;;;0.67;100.00
47815;BME280;33579;50.058;18.130;2024-03-08T02:44:00;99764.84;;;0.69;100.00
47815;BME280;33579;50.058;18.130;2024-03-08T02:45:02;99760.50;;;0.69;100.00
47815;BME280;33579;50.058;18.130;2024-03-08T02:46:03;99763.09;;;0.69;100.00
47815;BME280;33579;50.058;18.130;2024-03-08T02:47:05;99762.25;;;0.69;100.00
47815;BME280;33579;50.058;18.130;2024-03-08T02:48:08;99767.31;;;0.72;100.00
47815;BME280;33579;50.058;18.130;2024-03-08T02:49:09;99762.34;;;0.66;100.00
47815;BME280;33579;50.058;18.130;2024-03-08T02:50:11;99765.06;;;0.63;100.00
47815;BME280;33579;50.058;18.130;2024-03-08T02:51:13;99761.63;;;0.62;100.00
47815;BME280;33579;50.058;18.130;2024-03-08T02:52:15;99764.94;;;0.66;100.00
47815;BME280;33579;50.058;18.130;2024-03-08T02:53:17;99765.06;;;0.63;100.00
47815;BME280;33579;50.058;18.130;2024-03-08T02:54:19;99760.78;;;0.62;100.00
47815;BME280;33579;50.058;18.130;2024-03-08T02:55:21;99766.75;;;0.64;100.00
47815;BME280;33579;50.058;18.130;2024-03-08T02:56:23;99761.56;;;0.64;100.00
47815;BME280;33579;50.058;18.130;2024-03-08T02:57:24;99759.88;;;0.63;100.00
47815;BME280;33579;50.058;18.130;2024-03-08T02:58:26;99761.69;;;0.61;100.00
47815;BME280;33579;50.058;18.130;2024-03-08T02:59:28;99767.59;;;0.64;100.00
47815;BME280;33579;50.058;18.130;2024-03-08T03:00:30;99759.66;;;0.69;100.00
47815;BME280;33579;50.058;18.130;2024-03-08T03:01:33;99763.25;;;0.65;100.00
47815;BME280;33579;50.058;18.130;2024-03-08T03:02:35;99762.34;;;0.66;100.00
47815;BME280;33579;50.058;18.130;2024-03-08T03:03:37;99758.97;;;0.64;100.00
47815;BME280;33579;50.058;18.130;2024-03-08T03:04:42;99762.47;;;0.63;100.00
47815;BME280;33579;50.058;18.130;2024-03-08T03:05:43;99762.50;;;0.61;100.00
47815;BME280;33579;50.058;18.130;2024-03-08T03:06:49;99765.97;;;0.62;100.00
47815;BME280;33579;50.058;18.130;2024-03-08T03:07:51;99763.38;;;0.62;100.00
47815;BME280;33579;50.058;18.130;2024-03-08T03:08:53;99756.38;;;0.64;100.00
47815;BME280;33579;50.058;18.130;2024-03-08T03:09:54;99767.59;;;0.64;100.00
47815;BME280;33579;50.058;18.130;2024-03-08T03:10:56;99764.94;;;0.66;100.00
47815;BME280;33579;50.058;18.130;2024-03-08T03:12:01;99762.97;;;0.73;100.00
47815;BME280;33579;50.058;18.130;2024-03-08T03:13:03;99764.72;;;0.72;100.00
47815;BME280;33579;50.058;18.130;2024-03-08T03:14:05;99762.13;;;0.72;100.00
47815;BME280;33579;50.058;18.130;2024-03-08T03:15:06;99763.81;;;0.73;100.00
47815;BME280;33579;50.058;18.130;2024-03-08T03:16:08;99764.16;;;0.64;100.00
47815;BME280;33579;50.058;18.130;2024-03-08T03:17:10;99769.56;;;0.58;100.00
47815;BME280;33579;50.058;18.130;2024-03-08T03:18:12;99766.84;;;0.61;100.00
47815;BME280;33579;50.058;18.130;2024-03-08T03:19:14;99769.41;;;0.62;100.00
47815;BME280;33579;50.058;18.130;2024-03-08T03:20:15;99765.06;;;0.63;100.00
47815;BME280;33579;50.058;18.130;2024-03-08T03:21:17;99760.78;;;0.62;100.00
47815;BME280;33579;50.058;18.130;2024-03-08T03:22:19;99771.91;;;0.64;100.00
47815;BME280;33579;50.058;18.130;2024-03-08T03:23:21;99758.06;;;0.65;100.00
47815;BME280;33579;50.058;18.130;2024-03-08T03:24:23;99764.09;;;0.65;100.00
47815;BME280;33579;50.058;18.130;2024-03-08T03:25:24;99758.06;;;0.65;100.00
47815;BME280;33579;50.058;18.130;2024-03-08T03:26:26;99764.22;;;0.62;100.00
47815;BME280;33579;50.058;18.130;2024-03-08T03:27:28;99761.63;;;0.62;100.00
47815;BME280;33579;50.058;18.130;2024-03-08T03:28:29;99762.59;;;0.60;100.00
47815;BME280;33579;50.058;18.130;2024-03-08T03:29:31;99762.63;;;0.58;100.00
47815;BME280;33579;50.058;18.130;2024-03-08T03:30:33;99761.97;;;0.53;100.00
47815;BME280;33579;50.058;18.130;2024-03-08T03:31:35;99757.63;;;0.53;100.00
47815;BME280;33579;50.058;18.130;2024-03-08T03:32:36;99753.41;;;0.51;100.00
47815;BME280;33579;50.058;18.130;2024-03-08T03:33:38;99762.16;;;0.47;100.00
47815;BME280;33579;50.058;18.130;2024-03-08T03:34:41;99755.16;;;0.50;100.00
47815;BME280;33579;50.058;18.130;2024-03-08T03:35:43;99751.72;;;0.50;100.00
47815;BME280;33579;50.058;18.130;2024-03-08T03:36:44;99754.34;;;0.48;100.00
47815;BME280;33579;50.058;18.130;2024-03-08T03:37:47;99745.84;;;0.45;100.00
47815;BME280;33579;50.058;18.130;2024-03-08T03:38:48;99754.31;;;0.50;100.00
47815;BME280;33579;50.058;18.130;2024-03-08T03:39:50;99751.03;;;0.45;100.00
47815;BME280;33579;50.058;18.130;2024-03-08T03:40:52;99750.13;;;0.46;100.00
47815;BME280;33579;50.058;18.130;2024-03-08T03:41:53;99748.56;;;0.41;100.00
47815;BME280;33579;50.058;18.130;2024-03-08T03:42:55;99752.88;;;0.41;100.00
47815;BME280;33579;50.058;18.130;2024-03-08T03:43:57;99747.03;;;0.36;100.00
47815;BME280;33579;50.058;18.130;2024-03-08T03:44:59;99751.16;;;0.41;100.00
47815;BME280;33579;50.058;18.130;2024-03-08T03:46:01;99751.28;;;0.38;100.00
47815;BME280;33579;50.058;18.130;2024-03-08T03:47:02;99744.59;;;0.31;100.00
47815;BME280;33579;50.058;18.130;2024-03-08T03:48:06;99753.13;;;0.35;100.00
47815;BME280;33579;50.058;18.130;2024-03-08T03:49:09;99751.34;;;0.35;100.00
47815;BME280;33579;50.058;18.130;2024-03-08T03:50:10;99753.13;;;0.35;100.00
47815;BME280;33579;50.058;18.130;2024-03-08T03:51:12;99745.47;;;0.32;100.00
47815;BME280;33579;50.058;18.130;2024-03-08T03:52:14;99747.34;;;0.26;100.00
47815;BME280;33579;50.058;18.130;2024-03-08T03:53:15;99754.22;;;0.27;100.00
47815;BME280;33579;50.058;18.130;2024-03-08T03:54:17;99748.09;;;0.30;100.00
47815;BME280;33579;50.058;18.130;2024-03-08T03:55:19;99749.75;;;0.33;100.00
47815;BME280;33579;50.058;18.130;2024-03-08T03:56:25;99751.44;;;0.34;100.00
47815;BME280;33579;50.058;18.130;2024-03-08T03:57:26;99743.66;;;0.34;100.00
47815;BME280;33579;50.058;18.130;2024-03-08T03:58:28;99745.34;;;0.35;100.00
47815;BME280;33579;50.058;18.130;2024-03-08T03:59:30;99753.94;;;0.35;100.00
47815;BME280;33579;50.058;18.130;2024-03-08T04:00:32;99753.13;;;0.35;100.00
47815;BME280;33579;50.058;18.130;2024-03-08T04:01:33;99754.81;;;0.36;100.00
47815;BME280;33579;50.058;18.130;2024-03-08T04:02:40;99758.44;;;0.30;100.00
47815;BME280;33579;50.058;18.130;2024-03-08T04:03:42;99752.53;;;0.26;100.00
47815;BME280;33579;50.058;18.130;2024-03-08T04:04:44;99753.31;;;0.28;100.00
47815;BME280;33579;50.058;18.130;2024-03-08T04:05:46;99760.25;;;0.28;100.00
47815;BME280;33579;50.058;18.130;2024-03-08T04:06:48;99750.09;;;0.22;100.00
47815;BME280;33579;50.058;18.130;2024-03-08T04:07:49;99757.13;;;0.18;100.00
47815;BME280;33579;50.058;18.130;2024-03-08T04:08:51;99755.44;;;0.17;100.00
47815;BME280;33579;50.058;18.130;2024-03-08T04:09:53;99752.03;;;0.17;100.00
47815;BME280;33579;50.058;18.130;2024-03-08T04:10:54;99750.44;;;0.12;100.00
47815;BME280;33579;50.058;18.130;2024-03-08T04:11:56;99749.88;;;0.04;100.00
47815;BME280;33579;50.058;18.130;2024-03-08T04:12:58;99753.34;;;0.03;100.00
47815;BME280;33579;50.058;18.130;2024-03-08T04:14:00;99752.59;;;-0.01;100.00
47815;BME280;33579;50.058;18.130;2024-03-08T04:15:02;99752.59;;;-0.01;100.00
47815;BME280;33579;50.058;18.130;2024-03-08T04:16:04;99753.34;;;0.03;100.00
47815;BME280;33579;50.058;18.130;2024-03-08T04:17:06;99749.78;;;0.06;100.00
47815;BME280;33579;50.058;18.130;2024-03-08T04:18:08;99755.94;;;0.03;100.00
47815;BME280;33579;50.058;18.130;2024-03-08T04:19:09;99751.59;;;0.04;100.00
47815;BME280;33579;50.058;18.130;2024-03-08T04:20:11;99755.94;;;0.03;100.00
47815;BME280;33579;50.058;18.130;2024-03-08T04:21:13;99754.28;;;0.01;100.00
47815;BME280;33579;50.058;18.130;2024-03-08T04:22:15;99750.91;;;-0.02;100.00
47815;BME280;33579;50.058;18.130;2024-03-08T04:23:16;99747.44;;;-0.01;100.00
47815;BME280;33579;50.058;18.130;2024-03-08T04:24:18;99754.41;;;-0.03;100.00
47815;BME280;33579;50.058;18.130;2024-03-08T04:25:20;99746.53;;;0.01;100.00
47815;BME280;33579;50.058;18.130;2024-03-08T04:26:22;99750.06;;;-0.02;100.00
47815;BME280;33579;50.058;18.130;2024-03-08T04:27:23;99752.66;;;-0.02;100.00
47815;BME280;33579;50.058;18.130;2024-03-08T04:28:25;99753.50;;;-0.02;100.00
47815;BME280;33579;50.058;18.130;2024-03-08T04:29:27;99749.28;;;-0.04;100.00
47815;BME280;33579;50.058;18.130;2024-03-08T04:30:29;99753.50;;;-0.02;100.00
47815;BME280;33579;50.058;18.130;2024-03-08T04:31:30;99754.34;;;-0.01;100.00
47815;BME280;33579;50.058;18.130;2024-03-08T04:32:32;99754.34;;;-0.01;100.00
47815;BME280;33579;50.058;18.130;2024-03-08T04:33:34;99753.38;;;0.02;100.00
47815;BME280;33579;50.058;18.130;2024-03-08T04:34:36;99748.22;;;0.02;100.00
47815;BME280;33579;50.058;18.130;2024-03-08T04:35:38;99751.75;;;-0.01;100.00
47815;BME280;33579;50.058;18.130;2024-03-08T04:36:40;99756.91;;;-0.01;100.00
47815;BME280;33579;50.058;18.130;2024-03-08T04:37:42;99754.25;;;0.02;100.00
47815;BME280;33579;50.058;18.130;2024-03-08T04:38:43;99753.47;;;0.00;100.00
47815;BME280;33579;50.058;18.130;2024-03-08T04:39:45;99749.97;;;0.01;100.00
47815;BME280;33579;50.058;18.130;2024-03-08T04:40:47;99749.16;;;-0.01;100.00
47815;BME280;33579;50.058;18.130;2024-03-08T04:41:49;99748.31;;;-0.02;100.00
47815;BME280;33579;50.058;18.130;2024-03-08T04:42:52;99750.13;;;-0.04;100.00
47815;BME280;33579;50.058;18.130;2024-03-08T04:43:53;99744.09;;;-0.04;100.00
47815;BME280;33579;50.058;18.130;2024-03-08T04:44:55;99746.53;;;0.01;100.00
47815;BME280;33579;50.058;18.130;2024-03-08T04:45:57;99747.44;;;-0.01;100.00
47815;BME280;33579;50.058;18.130;2024-03-08T04:46:59;99753.47;;;0.00;100.00
47815;BME280;33579;50.058;18.130;2024-03-08T04:48:01;99751.59;;;0.04;100.00
47815;BME280;33579;50.058;18.130;2024-03-08T04:49:02;99751.03;;;-0.05;100.00
47815;BME280;33579;50.058;18.130;2024-03-08T04:50:05;99755.19;;;-0.01;100.00
47815;BME280;33579;50.058;18.130;2024-03-08T04:51:06;99752.50;;;0.03;100.00
47815;BME280;33579;50.058;18.130;2024-03-08T04:52:08;99757.72;;;0.01;100.00
47815;BME280;33579;50.058;18.130;2024-03-08T04:53:10;99754.91;;;0.07;100.00
47815;BME280;33579;50.058;18.130;2024-03-08T04:54:12;99754.09;;;0.07;100.00
47815;BME280;33579;50.058;18.130;2024-03-08T04:55:14;99755.88;;;0.05;100.00
47815;BME280;33579;50.058;18.130;2024-03-08T04:56:15;99751.50;;;0.07;100.00
47815;BME280;33579;50.058;18.130;2024-03-08T04:57:17;99755.63;;;0.12;100.00
47815;BME280;33579;50.058;18.130;2024-03-08T04:58:19;99754.88;;;0.09;100.00
47815;BME280;33579;50.058;18.130;2024-03-08T04:59:21;99751.28;;;0.13;100.00
47815;BME280;33579;50.058;18.130;2024-03-08T05:00:22;99752.19;;;0.12;100.00
47815;BME280;33579;50.058;18.130;2024-03-08T05:01:24;99754.78;;;0.12;100.00
47815;BME280;33579;50.058;18.130;2024-03-08T05:02:26;99751.28;;;0.13;100.00
47815;BME280;33579;50.058;18.130;2024-03-08T05:03:29;99756.25;;;0.19;100.00
47815;BME280;33579;50.058;18.130;2024-03-08T05:04:30;99758.03;;;0.17;100.00
47815;BME280;33579;50.058;18.130;2024-03-08T05:05:32;99757.97;;;0.19;100.00
47815;BME280;33579;50.058;18.130;2024-03-08T05:06:34;99758.03;;;0.17;100.00
47815;BME280;33579;50.058;18.130;2024-03-08T05:07:35;99760.69;;;0.16;100.00
47815;BME280;33579;50.058;18.130;2024-03-08T05:08:37;99764.84;;;0.20;100.00
47815;BME280;33579;50.058;18.130;2024-03-08T05:09:39;99761.44;;;0.19;100.00
47815;BME280;33579;50.058;18.130;2024-03-08T05:10:41;99763.28;;;0.16;100.00
47815;BME280;33579;50.058;18.130;2024-03-08T05:11:43;99762.53;;;0.12;100.00
47815;BME280;33579;50.058;18.130;2024-03-08T05:12:45;99759.16;;;0.10;100.00
47815;BME280;33579;50.058;18.130;2024-03-08T05:13:47;99765.06;;;0.13;100.00
47815;BME280;33579;50.058;18.130;2024-03-08T05:14:48;99764.25;;;0.11;100.00
47815;BME280;33579;50.058;18.130;2024-03-08T05:15:50;99756.56;;;0.10;100.00
47815;BME280;33579;50.058;18.130;2024-03-08T05:16:52;99759.09;;;0.11;100.00
47815;BME280;33579;50.058;18.130;2024-03-08T05:17:54;99758.22;;;0.12;100.00
47815;BME280;33579;50.058;18.130;2024-03-08T05:18:56;99760.84;;;0.11;100.00
47815;BME280;33579;50.058;18.130;2024-03-08T05:19:57;99755.66;;;0.11;100.00
47815;BME280;33579;50.058;18.130;2024-03-08T05:20:59;99753.81;;;0.15;100.00
47815;BME280;33579;50.058;18.130;2024-03-08T05:22:01;99761.47;;;0.18;100.00
47815;BME280;33579;50.058;18.130;2024-03-08T05:23:03;99758.94;;;0.16;100.00
47815;BME280;33579;50.058;18.130;2024-03-08T05:24:05;99760.81;;;0.12;100.00